Time;durP1;ratioP1;P1;durP2;ratioP2;P2;SDS_P1;SDS_P2;PMS_P1;PMS_P2;Temp;Humidity;BMP_temperature;BMP_pressure;BME280_temperature;BME280_humidity;BME280_pressure;Samples;Min_cycle;Max_cycle;Signal;HPM_P1;HPM_P2
2021/12/21 00:01:28;;;;;;;3.97;3.27;;;;;;;1.03;69.83;96722.59;5096152;28;20439;-36
2021/12/21 00:03:55;;;;;;;3.07;2.63;;;;;;;1.03;69.70;96725.22;5095834;28;20443;-36
2021/12/21 00:06:23;;;;;;;6.20;2.80;;;;;;;1.05;69.96;96725.03;5095838;28;20465;-37
2021/12/21 00:08:50;;;;;;;3.57;2.60;;;;;;;1.02;69.88;96719.19;5095632;28;20491;-37
2021/12/21 00:11:19;;;;;;;4.43;2.63;;;;;;;1.01;69.43;96721.97;5095644;28;20442;-37
2021/12/21 00:17:03;;;;;;;11.33;3.07;;;;;;;1.08;69.11;96743.00;5053297;28;20941;-37
2021/12/21 00:19:50;;;;;;;2.00;1.90;;;;;;;1.09;68.62;96744.63;5053363;28;20834;-37
2021/12/21 00:22:43;;;;;;;2.50;2.30;;;;;;;1.07;68.27;96743.97;5053189;28;20422;-37
2021/12/21 00:25:09;;;;;;;3.33;2.20;;;;;;;1.09;68.96;96748.03;5052994;28;20520;-37
2021/12/21 00:27:38;;;;;;;5.93;2.60;;;;;;;1.11;67.87;96743.44;5052982;28;20941;-37
2021/12/21 00:30:06;;;;;;;3.53;2.70;;;;;;;1.11;67.99;96746.06;5052673;28;20492;-36
2021/12/21 00:32:33;;;;;;;6.70;2.33;;;;;;;1.09;68.05;96750.66;5052960;28;20460;-37
2021/12/21 00:35:01;;;;;;;2.77;2.03;;;;;;;1.10;67.38;96744.44;5052907;28;20445;-34
2021/12/21 00:37:29;;;;;;;3.27;2.40;;;;;;;1.09;67.20;96765.53;5052898;28;20453;-38
2021/12/21 00:39:56;;;;;;;2.90;2.70;;;;;;;1.03;67.02;96761.81;5052773;28;20476;-37
2021/12/21 00:42:23;;;;;;;1.83;1.73;;;;;;;1.02;66.59;96762.81;5052726;28;20940;-37
2021/12/21 00:44:52;;;;;;;5.43;2.60;;;;;;;1.05;66.97;96752.00;5052844;28;20437;-37
2021/12/21 00:47:20;;;;;;;4.93;2.03;;;;;;;1.08;66.13;96754.28;5052680;28;20494;-37
2021/12/21 00:49:57;;;;;;;2.87;1.90;;;;;;;1.07;66.64;96762.28;5054526;28;20489;-37
2021/12/21 00:52:25;;;;;;;5.33;2.40;;;;;;;1.08;66.26;96769.97;5095179;28;20423;-37
2021/12/21 00:54:52;;;;;;;2.43;2.23;;;;;;;1.07;66.18;96755.25;5095133;28;20450;-37
2021/12/21 00:57:20;;;;;;;3.10;1.90;;;;;;;1.07;66.67;96757.84;5094768;28;20446;-37
2021/12/21 00:59:47;;;;;;;4.40;2.00;;;;;;;1.11;66.11;96759.13;5094748;28;20439;-37
2021/12/21 01:02:16;;;;;;;2.83;1.93;;;;;;;1.09;65.68;96766.34;5094922;28;20438;-37
2021/12/21 01:04:47;;;;;;;4.00;2.73;;;;;;;1.03;65.78;96746.13;5094586;28;20441;-37
2021/12/21 01:07:21;;;;;;;4.73;1.70;;;;;;;1.08;65.44;96748.22;5094866;28;20423;-37
2021/12/21 01:12:46;;;;;;;2.73;1.87;;;;;;;1.01;66.00;96758.56;5094257;28;20919;-37
2021/12/21 01:15:23;;;;;;;5.47;2.27;;;;;;;1.01;66.27;96764.63;5094788;28;20836;-37
2021/12/21 01:17:57;;;;;;;1.70;1.60;;;;;;;0.96;66.78;96764.31;5094364;28;20427;-37
2021/12/21 01:20:37;;;;;;;6.70;2.07;;;;;;;0.99;67.12;96766.59;5094427;28;20773;-37
2021/12/21 01:26:05;;;;;;;1.63;1.53;;;;;;;0.98;66.47;96759.72;5052150;28;20901;-37
2021/12/21 01:28:41;;;;;;;4.03;1.80;;;;;;;0.94;66.91;96752.44;5051842;28;20472;-37
2021/12/21 01:31:21;;;;;;;3.60;1.70;;;;;;;0.91;66.65;96758.00;5051928;28;20927;-36
2021/12/21 01:33:55;;;;;;;1.87;1.77;;;;;;;0.97;67.10;96762.53;5051887;28;20508;-37
2021/12/21 01:36:29;;;;;;;1.93;1.50;;;;;;;0.96;67.05;96755.69;5052006;28;20433;-34
2021/12/21 01:39:03;;;;;;;11.27;2.13;;;;;;;0.90;66.91;96765.03;5051768;28;20433;-35
2021/12/21 01:41:36;;;;;;;2.33;2.13;;;;;;;0.95;66.47;96754.06;5051745;28;20441;-34
2021/12/21 01:44:17;;;;;;;1.77;1.20;;;;;;;0.92;67.13;96744.75;5051701;28;20433;-36
2021/12/21 01:49:38;;;;;;;4.07;2.00;;;;;;;0.94;66.58;96762.88;5052053;28;20846;-34
2021/12/21 01:52:07;;;;;;;2.03;1.40;;;;;;;0.91;66.76;96752.78;5051523;28;20443;-34
2021/12/21 01:54:34;;;;;;;2.60;1.93;;;;;;;0.91;67.22;96755.41;5051514;28;20444;-36
2021/12/21 01:57:02;;;;;;;2.20;2.03;;;;;;;0.92;67.58;96764.84;5051414;28;20795;-33
2021/12/21 01:59:29;;;;;;;2.80;1.80;;;;;;;0.93;66.69;96761.28;5051395;28;20448;-36
2021/12/21 02:01:56;;;;;;;1.70;1.60;;;;;;;0.95;66.62;96764.53;5075480;28;20443;-35
2021/12/21 02:04:24;;;;;;;1.83;1.73;;;;;;;0.91;67.20;96761.44;5093633;28;20442;-35
2021/12/21 02:06:52;;;;;;;1.73;1.63;;;;;;;0.93;67.18;96771.72;5093626;28;20441;-36
2021/12/21 02:09:24;;;;;;;2.43;1.73;;;;;;;0.94;67.02;96768.13;5093746;28;20490;-35
2021/12/21 02:11:51;;;;;;;1.63;1.53;;;;;;;0.93;67.08;96771.72;5093614;28;20424;-36
2021/12/21 02:14:18;;;;;;;2.67;1.90;;;;;;;0.94;66.54;96765.50;5093837;28;20443;-36
2021/12/21 02:16:55;;;;;;;2.17;1.97;;;;;;;0.90;66.99;96754.56;5093834;28;20443;-36
2021/12/21 02:19:27;;;;;;;7.50;1.83;;;;;;;0.88;66.14;96753.94;5093500;28;20439;-36
2021/12/21 02:22:06;;;;;;;2.40;1.80;;;;;;;0.93;66.17;96761.28;5093795;28;20514;-36
2021/12/21 02:24:42;;;;;;;1.50;1.40;;;;;;;0.92;66.30;96770.09;5093696;28;20930;-36
2021/12/21 02:27:25;;;;;;;2.80;2.10;;;;;;;0.87;65.96;96757.53;5093776;28;20431;-36
2021/12/21 02:29:53;;;;;;;2.23;1.43;;;;;;;0.93;66.02;96767.31;5093274;28;20494;-36
2021/12/21 02:32:20;;;;;;;1.77;1.40;;;;;;;0.94;65.69;96762.88;5097057;28;20442;-35
2021/12/21 02:34:48;;;;;;;4.33;1.40;;;;;;;0.96;66.06;96768.75;5097473;28;20438;-36
2021/12/21 02:37:17;;;;;;;2.47;1.43;;;;;;;0.91;65.76;96768.47;5097483;28;20434;-36
2021/12/21 02:39:44;;;;;;;1.80;1.70;;;;;;;0.90;65.34;96766.84;5097357;28;20453;-36
2021/12/21 02:42:11;;;;;;;2.20;1.53;;;;;;;0.91;65.78;96758.00;5097686;28;20497;-36
2021/12/21 02:44:39;;;;;;;3.10;1.73;;;;;;;0.55;65.04;96732.47;5097695;28;20797;-35
2021/12/21 02:47:07;;;;;;;2.63;2.10;;;;;;;0.86;64.67;96765.56;5097563;28;20489;-36
2021/12/21 02:49:34;;;;;;;2.60;1.40;;;;;;;0.90;65.62;96782.50;5097170;28;20569;-36
2021/12/21 02:52:01;;;;;;;1.90;1.40;;;;;;;0.89;66.12;96775.69;5097433;28;20446;-36
2021/12/21 02:54:30;;;;;;;1.47;1.37;;;;;;;0.87;66.20;96777.66;5097435;28;20794;-36
2021/12/21 02:56:57;;;;;;;1.67;1.57;;;;;;;0.87;67.29;96778.47;5097128;28;20434;-36
2021/12/21 02:59:24;;;;;;;1.97;1.70;;;;;;;0.87;67.07;96773.22;5097363;28;20547;-37
2021/12/21 03:01:52;;;;;;;6.53;1.63;;;;;;;0.90;66.36;96779.91;5097056;28;20450;-36
2021/12/21 03:04:20;;;;;;;1.73;1.33;;;;;;;0.88;66.68;96784.50;5097229;28;20445;-37
2021/12/21 03:07:23;;;;;;;1.63;1.53;;;;;;;0.87;66.51;96782.88;5096903;28;20443;-37
2021/12/21 03:09:57;;;;;;;1.73;1.63;;;;;;;0.86;66.37;96787.31;5096708;28;20575;-37
2021/12/21 03:13:51;;;;;;;1.50;1.40;;;;;;;0.87;66.40;96786.31;5096773;28;20480;-37
2021/12/21 03:15:18;;;;;;;3.20;1.63;;;;;;;0.71;66.44;96774.19;5096757;28;20447;-37
2021/12/21 03:17:45;;;;;;;1.30;1.20;;;;;;;0.84;66.46;96799.72;5097008;28;20453;-37
2021/12/21 03:20:13;;;;;;;1.10;1.00;;;;;;;0.84;66.16;96804.13;5096681;28;20439;-37
2021/12/21 03:22:40;;;;;;;1.47;1.37;;;;;;;0.82;66.43;96802.50;5097235;28;20450;-37
2021/12/21 03:25:10;;;;;;;1.60;1.50;;;;;;;0.84;65.76;96804.13;5097735;28;20445;-37
2021/12/21 03:27:37;;;;;;;2.70;1.30;;;;;;;0.86;66.29;96803.00;5096517;28;20461;-37
2021/12/21 03:30:07;;;;;;;3.20;1.33;;;;;;;0.91;65.40;96811.09;5096213;28;20502;-37
2021/12/21 03:32:35;;;;;;;2.07;1.80;;;;;;;0.90;65.65;96808.66;5096386;28;20941;-37
2021/12/21 03:35:02;;;;;;;5.20;1.60;;;;;;;0.79;65.61;96787.16;5096403;28;20446;-37
2021/12/21 03:37:29;;;;;;;1.50;1.40;;;;;;;0.93;65.43;96806.53;5096700;28;20469;-37
2021/12/21 03:39:58;;;;;;;3.50;2.50;;;;;;;0.92;66.11;96814.53;5096267;28;20443;-37
2021/12/21 03:42:27;;;;;;;2.50;2.30;;;;;;;0.88;65.34;96815.88;5095916;28;20446;-37
2021/12/21 03:44:54;;;;;;;3.07;2.10;;;;;;;0.91;66.06;96815.53;5096477;28;20438;-37
2021/12/21 03:47:23;;;;;;;2.60;2.13;;;;;;;0.90;65.77;96819.13;5096189;28;20439;-37
2021/12/21 03:49:57;;;;;;;4.40;1.97;;;;;;;0.94;65.26;96820.41;5096336;28;20489;-37
2021/12/21 03:52:26;;;;;;;1.67;1.40;;;;;;;0.92;65.09;96817.94;5096085;28;20428;-37
2021/12/21 03:54:56;;;;;;;3.17;1.70;;;;;;;0.90;65.28;96814.69;5095984;28;20450;-37
2021/12/21 03:57:24;;;;;;;4.47;2.43;;;;;;;0.89;64.94;96827.97;5095955;28;20439;-38
2021/12/21 03:59:54;;;;;;;2.20;1.97;;;;;;;0.87;65.46;96820.28;5095884;28;20529;-37
2021/12/21 04:02:24;;;;;;;4.13;1.60;;;;;;;0.87;65.20;96825.50;5096189;28;20919;-37
2021/12/21 04:04:52;;;;;;;2.17;1.40;;;;;;;0.85;65.61;96826.69;5095863;28;21006;-36
2021/12/21 04:07:20;;;;;;;2.33;2.20;;;;;;;0.81;65.48;96834.84;5096636;28;20488;-36
2021/12/21 04:09:48;;;;;;;5.23;2.63;;;;;;;0.86;65.67;96823.91;5095656;28;20978;-35
2021/12/21 04:12:16;;;;;;;4.80;2.70;;;;;;;0.82;65.57;96826.03;5095606;28;20450;-36
2021/12/21 04:14:43;;;;;;;3.40;2.03;;;;;;;0.80;65.12;96824.59;5095597;28;20930;-34
2021/12/21 04:17:18;;;;;;;2.00;1.80;;;;;;;0.88;65.18;96819.28;5095909;28;20446;-37
2021/12/21 04:19:46;;;;;;;2.80;2.10;;;;;;;0.87;65.27;96830.75;5095552;28;20435;-36
2021/12/21 04:22:13;;;;;;;2.50;1.80;;;;;;;0.88;65.25;96834.16;5095815;28;20447;-36
2021/12/21 04:24:40;;;;;;;2.47;2.10;;;;;;;0.89;64.99;96833.19;5095695;28;20447;-36
2021/12/21 04:27:08;;;;;;;4.43;2.30;;;;;;;0.86;65.32;96839.59;5094013;28;20927;-37
2021/12/21 04:29:35;;;;;;;32.73;3.07;;;;;;;0.85;64.67;96837.13;5092969;28;20486;-36
2021/12/21 04:32:03;;;;;;;1.63;1.53;;;;;;;0.87;65.08;96845.63;5093298;28;20437;-36
2021/12/21 04:34:32;;;;;;;31.03;17.30;;;;;;;0.89;65.07;96854.91;5093158;28;20508;-37
2021/12/21 04:36:59;;;;;;;8.87;6.77;;;;;;;0.90;64.67;96859.13;5093443;28;20481;-36
2021/12/21 04:39:34;;;;;;;9.30;6.80;;;;;;;0.90;63.70;96859.13;5093362;28;20443;-36
2021/12/21 04:42:01;;;;;;;33.50;18.27;;;;;;;0.92;64.60;96864.19;5092562;28;20488;-36
2021/12/21 04:44:28;;;;;;;7.50;6.43;;;;;;;0.91;65.05;96868.63;5092901;28;20457;-36
2021/12/21 04:46:56;;;;;;;3.77;3.47;;;;;;;0.93;64.50;96865.84;5092872;28;20447;-36
2021/12/21 04:49:23;;;;;;;5.23;3.97;;;;;;;0.80;65.35;96867.22;5093170;28;20451;-37
2021/12/21 04:51:52;;;;;;;13.63;7.43;;;;;;;0.90;66.01;96876.63;5093058;28;20517;-36
2021/12/21 04:54:19;;;;;;;5.00;3.60;;;;;;;0.87;66.10;96877.00;5091334;28;20439;-36
2021/12/21 04:56:47;;;;;;;2.77;2.57;;;;;;;0.85;66.16;96873.72;5093040;28;20450;-37
2021/12/21 04:59:14;;;;;;;11.40;1.70;;;;;;;0.85;66.01;96873.72;5092933;28;20473;-37
2021/12/21 05:01:41;;;;;;;2.20;2.00;;;;;;;0.81;66.06;96876.69;5092731;28;20447;-36
2021/12/21 05:04:09;;;;;;;7.10;3.13;;;;;;;0.82;66.15;96886.16;5092840;28;20439;-36
2021/12/21 05:06:36;;;;;;;2.00;1.80;;;;;;;0.83;65.44;96881.75;5092403;28;20453;-36
2021/12/21 05:09:10;;;;;;;7.00;3.13;;;;;;;0.82;66.19;96895.81;5092459;28;20450;-36
2021/12/21 05:11:39;;;;;;;5.67;3.10;;;;;;;0.78;66.48;96882.25;5092437;28;20482;-36
2021/12/21 05:14:09;;;;;;;5.30;1.83;;;;;;;0.71;66.56;96897.00;5092432;28;20975;-36
2021/12/21 05:16:36;;;;;;;2.40;2.20;;;;;;;0.78;66.69;96884.06;5092376;28;20447;-37
2021/12/21 05:19:04;;;;;;;1.70;1.60;;;;;;;0.71;67.21;96893.56;5092341;28;20442;-37
2021/12/21 05:21:31;;;;;;;5.70;2.10;;;;;;;0.73;67.23;96902.03;5091805;28;20446;-37
2021/12/21 05:23:59;;;;;;;3.23;2.00;;;;;;;0.74;66.98;96911.53;5092242;28;20451;-37
2021/12/21 05:26:28;;;;;;;3.90;2.57;;;;;;;0.73;67.26;96902.88;5092192;28;20443;-35
2021/12/21 05:28:55;;;;;;;4.20;3.80;;;;;;;0.73;67.44;96918.56;5091968;28;20474;-36
2021/12/21 05:31:22;;;;;;;7.93;5.90;;;;;;;0.74;67.51;96920.19;5092109;28;20494;-36
2021/12/21 05:33:51;;;;;;;3.57;3.27;;;;;;;0.78;67.61;96926.69;5091889;28;20447;-36
2021/12/21 05:36:20;;;;;;;6.37;5.07;;;;;;;0.79;67.50;96920.47;5092040;28;20439;-37
2021/12/21 05:38:51;;;;;;;6.00;4.63;;;;;;;0.74;68.24;96928.03;5092197;28;20445;-36
2021/12/21 05:41:26;;;;;;;5.73;3.80;;;;;;;0.74;68.56;96920.19;5092283;28;20446;-37
2021/12/21 05:43:55;;;;;;;3.40;3.10;;;;;;;0.71;68.44;96925.75;5091924;28;20433;-36
2021/12/21 05:46:23;;;;;;;4.90;4.37;;;;;;;0.75;68.11;96932.28;5091462;28;20808;-36
2021/12/21 05:48:51;;;;;;;3.63;3.33;;;;;;;0.75;68.08;96934.91;5091848;28;20435;-36
2021/12/21 05:51:22;;;;;;;3.63;3.33;;;;;;;0.76;68.22;96927.84;5091740;28;20497;-37
2021/12/21 05:53:50;;;;;;;4.50;4.10;;;;;;;0.77;68.26;96951.19;5091810;28;20431;-36
2021/12/21 05:56:17;;;;;;;4.50;3.80;;;;;;;0.71;68.16;96936.22;5091713;28;20443;-37
2021/12/21 05:58:45;;;;;;;7.17;5.50;;;;;;;0.50;68.68;96913.28;5091537;28;20446;-37
2021/12/21 06:01:14;;;;;;;6.00;4.03;;;;;;;0.63;68.63;96938.84;5091618;28;20479;-37
2021/12/21 06:03:42;;;;;;;2.20;2.00;;;;;;;0.63;68.47;96956.34;5091883;28;20435;-37
2021/12/21 06:06:13;;;;;;;10.33;6.60;;;;;;;0.63;69.22;96966.78;5091321;28;20439;-37
2021/12/21 06:08:41;;;;;;;7.13;3.60;;;;;;;0.62;68.39;96947.66;5091899;28;20564;-36
2021/12/21 06:11:08;;;;;;;9.67;4.40;;;;;;;0.59;69.67;96954.06;5091435;28;20497;-37
2021/12/21 06:27:18;;;;;;;6.60;4.43;;;;;;;0.37;69.56;96929.47;5091481;28;20571;-37
2021/12/21 06:29:45;;;;;;;4.80;4.30;;;;;;;0.68;68.59;96988.81;5091236;28;20475;-37
2021/12/21 06:32:15;;;;;;;7.30;4.70;;;;;;;0.65;69.01;96994.38;5091324;28;20497;-37
2021/12/21 06:34:43;;;;;;;9.33;6.50;;;;;;;0.67;68.81;96992.41;5091562;28;20450;-35
2021/12/21 06:37:11;;;;;;;12.27;6.50;;;;;;;0.67;69.06;96996.81;5091579;28;20443;-37
2021/12/21 06:39:39;;;;;;;5.10;3.10;;;;;;;0.65;69.43;96999.59;5090832;28;20450;-37
2021/12/21 06:42:08;;;;;;;52.17;18.33;;;;;;;0.65;69.74;96994.38;5091602;28;20446;-36
2021/12/21 06:44:37;;;;;;;19.37;10.77;;;;;;;0.65;69.71;96994.38;5093539;28;20813;-37
2021/12/21 06:51:08;;;;;;;23.47;7.50;;;;;;;0.67;69.27;97002.88;5093515;28;20470;-36
2021/12/21 06:52:41;;;;;;;10.97;6.97;;;;;;;0.61;69.49;96998.31;5093350;28;20407;-36
2021/12/21 06:55:09;;;;;;;16.30;8.07;;;;;;;0.67;70.00;97015.94;5093993;28;20777;-37
2021/12/21 06:57:39;;;;;;;11.70;6.30;;;;;;;0.71;69.88;97012.00;5093421;28;20789;-37
2021/12/21 07:00:09;;;;;;;13.87;6.93;;;;;;;0.61;69.65;96995.69;5093092;28;20470;-38
2021/12/21 07:02:36;;;;;;;12.87;7.10;;;;;;;0.74;69.91;97019.50;5093425;28;20467;-37
2021/12/21 07:05:06;;;;;;;10.73;5.77;;;;;;;0.79;69.07;97014.56;5093110;28;20442;-37
2021/12/21 07:07:34;;;;;;;9.07;4.33;;;;;;;0.78;68.85;97025.22;5093090;28;20443;-37
2021/12/21 07:10:05;;;;;;;15.33;5.90;;;;;;;0.84;69.43;97010.63;5093399;28;20455;-37
2021/12/21 07:18:08;;;;;;;11.20;5.77;;;;;;;0.93;68.21;97028.75;5093578;28;20406;-35
2021/12/21 07:20:38;;;;;;;28.63;15.97;;;;;;;0.94;68.62;97032.16;5094621;28;20427;-38
2021/12/21 07:23:05;;;;;;;10.03;7.43;;;;;;;0.94;68.26;97021.72;5094666;28;20443;-37
2021/12/21 07:25:32;;;;;;;8.13;3.37;;;;;;;0.95;68.17;97031.19;5094544;28;20447;-38
2021/12/21 07:27:59;;;;;;;5.63;4.00;;;;;;;0.97;67.98;97030.03;5094163;28;20441;-38
2021/12/21 07:30:27;;;;;;;4.63;4.27;;;;;;;0.88;67.82;97009.31;5094217;28;20477;-36
2021/12/21 07:32:54;;;;;;;3.27;2.97;;;;;;;1.02;67.19;97021.69;5094398;28;20447;-37
2021/12/21 07:35:21;;;;;;;7.13;5.13;;;;;;;1.05;67.39;97034.41;5094405;28;20810;-38
2021/12/21 07:37:50;;;;;;;10.30;6.60;;;;;;;1.12;66.57;97031.91;5094272;28;20454;-38
2021/12/21 07:40:18;;;;;;;44.10;15.83;;;;;;;1.14;66.33;97032.56;5094261;28;20439;-37
2021/12/21 07:42:45;;;;;;;25.60;8.80;;;;;;;1.16;66.39;97054.13;5094019;28;20443;-37
2021/12/21 07:45:13;;;;;;;21.77;7.40;;;;;;;1.21;65.79;97057.06;5094458;28;20446;-37
2021/12/21 07:47:40;;;;;;;11.90;4.70;;;;;;;1.24;66.12;97059.34;5095012;28;20949;-38
2021/12/21 07:50:09;;;;;;;2.57;2.37;;;;;;;1.27;65.99;97060.78;5096455;28;20443;-37
2021/12/21 07:52:37;;;;;;;17.03;6.30;;;;;;;1.26;65.25;97061.78;5096333;28;20853;-37
2021/12/21 07:55:07;;;;;;;2.50;2.30;;;;;;;1.22;65.19;97074.38;5096046;28;20443;-37
2021/12/21 07:57:34;;;;;;;4.87;3.97;;;;;;;1.22;65.20;97074.38;5096800;28;20457;-37
2021/12/21 08:00:04;;;;;;;5.57;3.57;;;;;;;1.27;65.44;97071.25;5096178;28;20782;-37
2021/12/21 08:02:32;;;;;;;11.10;5.53;;;;;;;1.23;64.82;97073.41;5095889;28;20522;-37
2021/12/21 08:05:04;;;;;;;25.57;8.40;;;;;;;1.30;65.07;97081.41;5095836;28;20486;-37
2021/12/21 08:07:36;;;;;;;19.07;7.30;;;;;;;1.31;64.86;97088.25;5095896;28;20540;-37
2021/12/21 08:10:19;;;;;;;17.37;8.30;;;;;;;1.36;64.78;97086.75;5096076;28;20523;-37
2021/12/21 08:12:47;;;;;;;7.50;3.90;;;;;;;1.40;63.39;97108.16;5093863;28;20490;-38
2021/12/21 08:15:14;;;;;;;575.67;223.50;;;;;;;1.38;63.61;97102.28;5093763;28;20447;-38
2021/12/21 08:17:42;;;;;;;88.37;34.27;;;;;;;1.41;63.71;97088.84;5093898;28;20797;-37
2021/12/21 08:20:09;;;;;;;12.83;8.60;;;;;;;1.50;63.76;97107.94;5093518;28;20923;-37
2021/12/21 08:22:37;;;;;;;3.80;3.57;;;;;;;1.38;63.47;97089.22;5093766;28;20446;-37
2021/12/21 08:25:07;;;;;;;8.43;4.33;;;;;;;1.52;63.38;97116.44;5093670;28;20854;-37
2021/12/21 08:27:35;;;;;;;1.97;1.83;;;;;;;1.55;61.22;97114.31;5093067;28;20431;-38
2021/12/21 08:30:02;;;;;;;3.97;3.00;;;;;;;1.42;62.00;97122.72;5093212;28;20478;-38
2021/12/21 08:32:29;;;;;;;4.33;2.10;;;;;;;1.44;62.63;97122.53;5093452;28;20497;-38
2021/12/21 08:34:56;;;;;;;6.60;4.13;;;;;;;1.50;63.23;97128.88;5093577;28;20569;-38
2021/12/21 08:37:24;;;;;;;6.03;3.50;;;;;;;1.56;63.52;97134.25;5093601;28;20446;-38
2021/12/21 08:39:51;;;;;;;2.70;2.50;;;;;;;1.60;62.45;97132.13;5092935;28;20522;-38
2021/12/21 08:42:20;;;;;;;5.03;2.83;;;;;;;1.63;63.49;97124.75;5093095;28;20478;-38
2021/12/21 08:44:48;;;;;;;6.70;3.10;;;;;;;1.68;63.80;97142.56;5092920;28;20443;-38
2021/12/21 08:47:16;;;;;;;4.37;3.37;;;;;;;1.67;62.36;97129.63;5093050;28;20481;-38
2021/12/21 08:49:44;;;;;;;4.87;3.23;;;;;;;1.73;63.07;97139.41;5092933;28;20435;-38
2021/12/21 08:52:11;;;;;;;15.50;5.07;;;;;;;1.78;62.53;97137.09;5092621;28;20522;-38
2021/12/21 08:54:38;;;;;;;6.00;3.60;;;;;;;1.85;62.58;97140.66;5092821;28;20439;-38
2021/12/21 08:57:06;;;;;;;8.13;4.60;;;;;;;1.93;61.62;97137.97;5092762;28;20443;-38
2021/12/21 08:59:35;;;;;;;3.93;3.43;;;;;;;2.04;62.28;97132.34;5093040;28;20453;-38
2021/12/21 09:02:02;;;;;;;3.20;2.60;;;;;;;2.14;61.68;97142.59;5092682;28;20453;-38
2021/12/21 09:04:29;;;;;;;2.20;1.97;;;;;;;2.22;62.20;97126.00;5092183;28;20447;-38
2021/12/21 09:06:57;;;;;;;4.63;3.40;;;;;;;2.39;61.91;97127.50;5092602;28;20439;-38
2021/12/21 09:09:24;;;;;;;4.23;3.30;;;;;;;2.67;61.65;97122.50;5092851;28;20791;-38
2021/12/21 09:11:51;;;;;;;2.73;2.50;;;;;;;3.02;60.47;97120.19;5092420;28;20858;-38
2021/12/21 09:14:18;;;;;;;11.83;5.30;;;;;;;3.13;59.66;97111.06;5092486;28;20443;-38
2021/12/21 09:16:47;;;;;;;2.87;2.10;;;;;;;3.11;58.63;97126.16;5092475;28;20443;-37
2021/12/21 09:19:14;;;;;;;6.93;4.50;;;;;;;3.12;60.07;97125.19;5091897;28;20436;-37
2021/12/21 09:21:42;;;;;;;16.60;8.67;;;;;;;3.19;60.38;97109.53;5092369;28;20445;-38
2021/12/21 09:24:09;;;;;;;6.97;5.13;;;;;;;3.16;59.90;97108.09;5092574;28;20446;-36
2021/12/21 09:26:37;;;;;;;4.60;2.57;;;;;;;3.08;59.50;97129.16;5092198;28;21011;-38
2021/12/21 09:29:04;;;;;;;4.50;2.00;;;;;;;2.95;59.21;97124.53;5092122;28;20475;-38
2021/12/21 09:31:31;;;;;;;9.17;5.00;;;;;;;2.80;60.33;97116.66;5091863;28;20471;-38
2021/12/21 09:34:00;;;;;;;10.20;5.30;;;;;;;2.58;60.90;97120.13;5092363;28;20529;-38
2021/12/21 09:36:29;;;;;;;9.00;5.60;;;;;;;2.25;62.41;97118.59;5092025;28;20922;-38
2021/12/21 09:38:58;;;;;;;8.60;3.90;;;;;;;2.13;63.80;97113.94;5091887;28;20942;-37
2021/12/21 09:41:26;;;;;;;5.60;4.30;;;;;;;2.05;63.67;97113.03;5092030;28;20446;-38
2021/12/21 09:43:53;;;;;;;4.10;3.17;;;;;;;1.95;64.01;97116.84;5091460;28;20442;-37
2021/12/21 09:46:20;;;;;;;15.03;11.20;;;;;;;1.86;64.76;97123.94;5091929;28;20949;-38
2021/12/21 09:48:47;;;;;;;6.53;4.10;;;;;;;1.89;64.68;97123.59;5092178;28;20446;-38
2021/12/21 09:51:16;;;;;;;17.37;9.30;;;;;;;1.88;64.42;97124.59;5091765;28;20446;-38
2021/12/21 09:53:44;;;;;;;18.80;9.73;;;;;;;1.86;65.35;97129.19;5091757;28;20930;-37
2021/12/21 09:56:12;;;;;;;12.00;3.83;;;;;;;1.90;64.95;97129.66;5091742;28;20449;-38
2021/12/21 09:58:39;;;;;;;3.53;2.93;;;;;;;1.84;64.33;97129.34;5091284;28;20447;-37
2021/12/21 10:01:06;;;;;;;12.47;10.00;;;;;;;1.90;64.56;97137.53;5091705;28;20447;-37
2021/12/21 10:03:34;;;;;;;9.13;4.00;;;;;;;1.87;65.10;97125.56;5091927;28;20790;-38
2021/12/21 10:06:05;;;;;;;3.50;3.27;;;;;;;1.84;65.56;97129.34;5091970;28;20991;-38
2021/12/21 10:08:35;;;;;;;3.40;2.40;;;;;;;1.77;65.94;97130.22;5091960;28;20434;-36
2021/12/21 10:11:03;;;;;;;5.03;4.40;;;;;;;1.72;66.75;97127.28;5091437;28;20788;-37
2021/12/21 10:13:31;;;;;;;3.10;2.43;;;;;;;1.77;66.58;97130.22;5091421;28;20487;-38
2021/12/21 10:16:00;;;;;;;9.90;5.40;;;;;;;1.82;66.44;97133.13;5091558;28;20450;-38
2021/12/21 10:18:30;;;;;;;12.83;8.40;;;;;;;1.76;66.76;97123.34;5091426;28;20435;-38
2021/12/21 10:20:59;;;;;;;3.03;2.70;;;;;;;1.50;65.29;97102.72;5091527;28;20443;-37
2021/12/21 10:23:28;;;;;;;5.73;3.80;;;;;;;1.58;67.17;97137.50;5090914;28;20450;-37
2021/12/21 10:26:00;;;;;;;6.70;3.37;;;;;;;1.47;67.66;97116.97;5091388;28;20442;-37
2021/12/21 10:28:33;;;;;;;7.70;4.70;;;;;;;1.44;66.82;97106.81;5091452;28;20532;-37
2021/12/21 10:31:03;;;;;;;93.00;33.20;;;;;;;1.67;67.14;97132.25;5091677;28;20451;-38
2021/12/21 10:33:31;;;;;;;14.57;5.73;;;;;;;1.63;68.23;97123.91;5091171;28;20994;-38
2021/12/21 10:36:00;;;;;;;11.23;5.70;;;;;;;1.72;67.29;97122.06;5091232;28;20451;-37
2021/12/21 10:38:30;;;;;;;30.83;12.50;;;;;;;1.71;67.66;97131.72;5091575;28;20815;-38
2021/12/21 10:41:11;;;;;;;6.30;5.33;;;;;;;1.80;67.81;97132.50;5091308;28;20445;-37
2021/12/21 10:43:39;;;;;;;10.27;4.87;;;;;;;1.78;67.30;97134.47;5091278;28;20445;-37
2021/12/21 10:46:07;;;;;;;20.00;13.13;;;;;;;1.80;67.48;97124.63;5091255;28;20442;-38
2021/12/21 10:48:36;;;;;;;10.50;7.00;;;;;;;1.82;67.38;97133.13;5091545;28;20947;-37
2021/12/21 10:51:08;;;;;;;26.30;13.00;;;;;;;1.81;67.09;97121.03;5090757;28;20447;-39
2021/12/21 10:53:37;;;;;;;10.20;4.53;;;;;;;1.66;66.90;97086.09;5095015;28;20587;-37
2021/12/21 10:56:08;;;;;;;7.00;4.63;;;;;;;1.86;66.76;97117.91;5095113;28;20478;-38
2021/12/21 10:58:39;;;;;;;11.10;8.67;;;;;;;1.90;67.06;97104.28;5095400;28;20527;-38
2021/12/21 11:01:09;;;;;;;6.67;4.43;;;;;;;1.99;66.75;97107.66;5095356;28;20434;-38
2021/12/21 11:03:40;;;;;;;3.33;3.13;;;;;;;2.03;66.60;97109.75;5094604;28;20457;-35
2021/12/21 11:06:10;;;;;;;4.27;2.50;;;;;;;2.03;66.82;97125.47;5095015;28;20546;-37
2021/12/21 11:08:38;;;;;;;4.00;3.60;;;;;;;1.96;66.48;97114.06;5095239;28;20439;-38
2021/12/21 11:11:10;;;;;;;4.53;3.17;;;;;;;1.99;67.09;97120.75;5094846;28;20443;-37
2021/12/21 11:13:39;;;;;;;5.93;3.87;;;;;;;1.99;66.20;97124.19;5095032;28;20505;-38
2021/12/21 11:16:07;;;;;;;13.87;4.27;;;;;;;2.03;66.51;97109.75;5094250;28;20438;-36
2021/12/21 11:18:37;;;;;;;3.80;2.57;;;;;;;2.07;67.09;97109.44;5094647;28;20443;-36
2021/12/21 11:21:10;;;;;;;4.07;3.67;;;;;;;2.08;67.06;97111.03;5094736;28;20442;-37
2021/12/21 11:23:40;;;;;;;14.40;6.40;;;;;;;2.01;67.03;97111.72;5094925;28;20431;-37
2021/12/21 11:26:09;;;;;;;5.37;4.10;;;;;;;1.98;66.60;97117.34;5094854;28;20824;-37
2021/12/21 11:28:38;;;;;;;9.30;6.27;;;;;;;1.98;67.10;97112.09;5094054;28;20484;-37
2021/12/21 11:31:07;;;;;;;27.57;10.33;;;;;;;1.98;67.51;97101.63;5094523;28;20431;-37
2021/12/21 11:33:43;;;;;;;10.80;4.97;;;;;;;2.04;66.59;97106.16;5094290;28;20551;-38
2021/12/21 11:38:58;;;;;;;5.53;4.27;;;;;;;2.10;66.10;97106.44;5094441;28;20407;-38
2021/12/21 11:41:27;;;;;;;8.27;6.83;;;;;;;2.20;66.47;97109.66;5094181;28;20447;-38
2021/12/21 11:44:02;;;;;;;11.93;6.33;;;;;;;2.39;65.21;97103.94;5094301;28;20447;-36
2021/12/21 11:46:37;;;;;;;6.50;5.20;;;;;;;2.54;64.21;97100.50;5094206;28;20430;-35
2021/12/21 11:49:20;;;;;;;13.67;6.07;;;;;;;2.76;64.28;97097.03;5094468;28;20780;-35
2021/12/21 11:51:47;;;;;;;8.27;4.43;;;;;;;3.00;63.50;97109.06;5094142;28;20930;-35
2021/12/21 11:54:17;;;;;;;3.43;2.63;;;;;;;2.97;61.91;97145.31;5094147;28;20439;-35
2021/12/21 11:56:46;;;;;;;9.83;5.60;;;;;;;2.94;62.38;97116.84;5093945;28;20923;-35
2021/12/21 11:59:21;;;;;;;6.57;3.90;;;;;;;2.83;61.40;97121.53;5094194;28;20454;-36
2021/12/21 12:01:48;;;;;;;5.03;3.77;;;;;;;2.72;60.53;97124.59;5093877;28;20777;-35
2021/12/21 12:04:16;;;;;;;11.77;7.60;;;;;;;2.75;61.09;97116.38;5093384;28;20435;-36
2021/12/21 12:06:46;;;;;;;12.10;7.93;;;;;;;2.67;60.56;97117.28;5093804;28;20454;-35
2021/12/21 12:09:23;;;;;;;15.37;8.77;;;;;;;2.72;60.80;97114.13;5093299;28;20446;-35
2021/12/21 12:11:53;;;;;;;23.83;9.97;;;;;;;2.63;60.77;97125.69;5093978;28;20427;-36
2021/12/21 12:14:22;;;;;;;23.73;10.70;;;;;;;2.63;61.28;97130.91;5093572;28;20442;-36
2021/12/21 12:16:53;;;;;;;17.97;8.63;;;;;;;2.69;60.72;97118.88;5093586;28;20459;-35
2021/12/21 12:19:22;;;;;;;21.40;10.93;;;;;;;2.67;60.69;97121.72;5093536;28;20433;-36
2021/12/21 12:21:55;;;;;;;9.57;5.93;;;;;;;2.69;60.16;97119.72;5093384;28;20442;-36
2021/12/21 12:24:24;;;;;;;8.50;5.33;;;;;;;2.75;59.42;97119.00;5093479;28;20423;-36
2021/12/21 12:27:01;;;;;;;10.10;6.87;;;;;;;2.71;60.02;97127.38;5093708;28;20447;-37